• Join FlightAware (Why Join?)
  • Login
  • US Flag 
08:23AM EDT


 

Airport Tracker/Info


-or-


 

Live Flight TrackerFlight Track Log ✈ EGF3457 ✈ 28-Dec-2013 ✈ KBNA - KDCA

Flight Track Log - Related Links

Times and Time Zones

All times are in EST time to prevent confusion due to time zone crossing. See the EGF3457 flight status page for this flight to view local times or setup timezone preferences in your user account.

Time Position Orientation Groundspeed Altitude Reporting Facility
EST Latitude Longitude Course Direction KTS MPH feet Rate Location/Type
02:26PM 36.0833 -86.6833 180° South 172 198 2,300  Level Nashville TRACON
02:27PM 36.0500 -86.6000 116° Southeast 256 295 5,600 2,580 Climbing Nashville TRACON
02:28PM 36.2729 -86.2317 64° Northeast  Level Estimated
02:28PM 36.0667 -86.5333 73° East 276 318 7,500  Level Nashville TRACON
02:29PM 36.3220 -86.0825 68° East  Level Estimated
02:29PM 36.1017 -86.4431 64° Northeast 265 305 10,100  Level Memphis Center
02:30PM 36.3709 -85.9331 63° Northeast  Level Estimated
02:30PM 36.1278 -86.3386 73° East 307 353 11,300  Level Memphis Center
02:31PM 36.4196 -85.7835 58° Northeast  Level Estimated
02:31PM 36.1594 -86.2203 72° East 351 404 12,300  Level Memphis Center
02:32PM 36.1947 -86.0933 71° East 380 437 13,500 1,260 Climbing Memphis Center
02:33PM 36.2439 -85.9667 64° Northeast 397 457 15,000 1,440 Climbing Memphis Center
02:34PM 36.3008 -85.8453 60° Northeast 407 468 16,500 1,440 Climbing Indianapolis Center
02:35PM 36.3672 -85.7025 60° Northeast 410 472 18,000 1,440 Climbing Indianapolis Center
02:36PM 36.4253 -85.5794 60° Northeast 412 474 19,500 1,500 Climbing Indianapolis Center
02:37PM 36.4858 -85.4528 59° Northeast 422 486 21,100 1,500 Climbing Indianapolis Center
02:38PM 36.5472 -85.3219 60° Northeast 434 499 22,600 900 Climbing Indianapolis Center
02:39PM 36.6111 -85.1864 60° Northeast 453 521 23,000 180 Climbing Indianapolis Center
02:40PM 36.6614 -85.0311 68° East 481 554 23,000  Level Indianapolis Center
02:41PM 36.7086 -84.8703 70° East 493 567 23,000  Level Indianapolis Center
02:42PM 36.7583 -84.7103 69° East 492 566 23,000  Level Indianapolis Center
02:43PM 36.8172 -84.5164 69° East 495 570 23,000  Level Indianapolis Center
02:44PM 36.8642 -84.3547 70° East 493 567 23,000  Level Indianapolis Center
02:45PM 36.9128 -84.1936 69° East 494 568 23,000  Level Indianapolis Center
02:46PM 36.9614 -84.0336 69° East 491 565 23,000  Level Indianapolis Center
02:47PM 37.0086 -83.8739 70° East 488 562 23,000  Level Indianapolis Center
02:48PM 37.0561 -83.7136 70° East 489 563 23,000  Level Indianapolis Center
02:49PM 37.1033 -83.5511 70° East 493 567 23,000  Level Indianapolis Center
02:50PM 37.1506 -83.3897 70° East 490 564 23,000  Level Indianapolis Center
02:52PM 37.2058 -83.1983 70° East 494 568 23,000  Level Indianapolis Center
02:53PM 37.2531 -83.0358 70° East 490 564 23,000  Level Indianapolis Center
02:54PM 37.2994 -82.8714 70° East 493 567 23,000  Level Indianapolis Center
02:55PM 37.3461 -82.7081 70° East 493 567 23,000  Level Indianapolis Center
02:56PM 37.3925 -82.5450 70° East 492 566 23,000  Level Indianapolis Center
02:57PM 37.4383 -82.3847 70° East 487 560 23,000  Level Indianapolis Center
02:58PM 37.4819 -82.2244 71° East 483 556 23,000  Level Indianapolis Center
02:59PM 37.5258 -82.0647 71° East 482 555 23,000  Level Indianapolis Center
03:00PM 37.5778 -81.8797 70° East 480 552 23,000  Level Indianapolis Center
03:01PM 37.6211 -81.7214 71° East 478 550 23,000  Level Indianapolis Center
03:02PM 37.6631 -81.5639 71° East 474 545 23,000  Level Indianapolis Center
03:03PM 37.7044 -81.4133 71° East 474 545 23,000  Level Indianapolis Center
03:04PM 37.7456 -81.2611 71° East 471 542 23,000  Level Indianapolis Center
03:05PM 37.7942 -81.0789 71° East 470 541 23,000  Level Indianapolis Center
03:06PM 37.8408 -80.9503 65° Northeast 467 537 23,000  Level Indianapolis Center
03:07PM 37.9056 -80.7703 65° Northeast 465 535 23,000  Level Indianapolis Center
03:08PM 37.9561 -80.6231 66° East 464 534 23,000  Level Indianapolis Center
03:09PM 37.9997 -80.5039 65° Northeast 462 532 23,000  Level Washington Center
03:10PM 38.0536 -80.3544 65° Northeast 462 532 23,000  Level Washington Center
03:11PM 38.1053 -80.2072 66° East 462 532 23,000  Level Washington Center
03:12PM 38.1611 -80.0575 65° Northeast 462 532 23,000  Level Washington Center
03:13PM 38.2122 -79.9100 66° East 462 532 23,000  Level Washington Center
03:14PM 38.2608 -79.7753 65° Northeast 457 526 23,000  Level Washington Center
03:15PM 38.3119 -79.6247 67° East 457 526 23,000  Level Washington Center
03:16PM 38.3628 -79.4739 67° East 452 520 23,000  Level Washington Center
03:17PM 38.4156 -79.3256 66° East 452 520 23,000  Level Washington Center
03:18PM 38.4542 -79.1497 74° East 452 520 23,000  Level Washington Center
03:19PM 38.4797 -78.9892 78° East 452 520 23,000  Level Washington Center
03:20PM 38.5025 -78.8444 79° East 457 526 23,000  Level Washington Center
03:21PM 38.5275 -78.6836 79° East 457 526 23,000 -600 Level Washington Center
03:22PM 38.5500 -78.5331 79° East 451 519 21,900 -1,440 Descending Washington Center
03:23PM 38.5725 -78.3853 79° East 431 496 20,200 -1,800 Descending Washington Center
03:24PM 38.5964 -78.2453 78° East 416 479 18,400 -1,740 Descending Washington Center
03:25PM 38.6389 -78.1167 67° East 397 457 16,800 -1,800 Descending Washington Center
03:26PM 38.6789 -77.9956 67° East 380 437 14,900 -1,920 Descending Washington Center
03:27PM 38.7167 -77.8772 68° East 365 420 13,100 -1,740 Descending Washington Center
03:28PM 38.7622 -77.7775 60° Northeast 339 390 11,400 -1,140 Descending Washington Center
03:29PM 38.8178 -77.7019 47° Northeast 313 360 10,900 -1,260 Descending Washington Center
03:30PM 38.8797 -77.6131 48° Northeast 296 341 9,000 -1,500 Descending Washington Center
03:31PM 38.9311 -77.5369 49° Northeast 290 334 8,000 -900 Descending Washington Center
03:32PM 38.9667 -77.4167 69° East 283 326 7,100 -1,200 Descending Potomac TRACON
03:33PM 38.9833 -77.3167 78° East 283 326 5,400 -1,680 Descending Potomac TRACON
03:34PM 38.9833 -77.2333 90° East 276 318 3,800 -1,440 Descending Potomac TRACON
03:35PM 38.9500 -77.1500 117° Southeast 233 268 2,600 -1,140 Descending Potomac TRACON
03:36PM 38.9167 -77.1000 131° Southeast 145 167 1,600 -900 Descending Potomac TRACON
03:37PM 38.9000 -77.0667 123° Southeast 139 160 800 -720 Descending Potomac TRACON
03:38PM 38.8667 -77.0333 142° Southeast 124 143 200 -600 Descending Potomac TRACON